Time;durP1;ratioP1;P1;durP2;ratioP2;P2;SDS_P1;SDS_P2;PMS_P1;PMS_P2;Temp;Humidity;BMP_temperature;BMP_pressure;BME280_temperature;BME280_humidity;BME280_pressure;Samples;Min_cycle;Max_cycle;Signal;HPM_P1;HPM_P2
2022/10/30 00:00:40;;;;;;;18.10;11.93;;;15.00;99.90;;;;;;5138531;27;20047;-46
2022/10/30 00:03:09;;;;;;;21.10;12.15;;;14.90;99.90;;;;;;5136901;27;20043;-43
2022/10/30 00:05:35;;;;;;;21.90;12.18;;;14.80;99.90;;;;;;5135576;27;20050;-46
2022/10/30 00:08:00;;;;;;;21.15;12.05;;;14.90;99.90;;;;;;5134882;27;20031;-45
2022/10/30 00:10:26;;;;;;;21.27;11.73;;;14.70;99.90;;;;;;5147639;27;20039;-45
2022/10/30 00:12:52;;;;;;;20.17;11.52;;;14.70;99.90;;;;;;5144985;27;20610;-44
2022/10/30 00:15:18;;;;;;;19.27;12.20;;;14.80;99.90;;;;;;5135105;27;20086;-45
2022/10/30 00:17:44;;;;;;;20.48;12.43;;;14.60;99.90;;;;;;5145009;27;20047;-44
2022/10/30 00:20:09;;;;;;;21.73;11.45;;;14.50;99.90;;;;;;5116771;27;20086;-46
2022/10/30 00:22:36;;;;;;;18.88;12.15;;;14.60;99.90;;;;;;5137654;27;20130;-46
2022/10/30 00:25:03;;;;;;;22.15;11.85;;;14.50;99.90;;;;;;5143046;27;20043;-46
2022/10/30 00:27:29;;;;;;;18.42;11.93;;;14.50;99.90;;;;;;5147350;27;20051;-46
2022/10/30 00:29:55;;;;;;;21.00;12.63;;;14.50;99.90;;;;;;5131201;27;20057;-46
2022/10/30 00:32:20;;;;;;;22.77;11.95;;;14.50;99.90;;;;;;5138255;27;20070;-48
2022/10/30 00:34:46;;;;;;;25.00;13.52;;;14.60;99.90;;;;;;5124297;27;20051;-47
2022/10/30 00:37:11;;;;;;;22.17;12.60;;;14.60;99.90;;;;;;5139552;27;20038;-45
2022/10/30 00:39:37;;;;;;;21.00;11.80;;;14.40;99.90;;;;;;5144664;27;20034;-45
2022/10/30 00:42:03;;;;;;;20.10;12.20;;;14.60;99.90;;;;;;5144751;27;20137;-45
2022/10/30 00:44:43;;;;;;;27.95;13.50;;;14.50;99.90;;;;;;5138262;27;20070;-44
2022/10/30 00:47:31;;;;;;;22.00;12.25;;;14.60;99.90;;;;;;5133830;27;20048;-45
2022/10/30 00:50:03;;;;;;;20.27;12.27;;;14.40;99.90;;;;;;5121480;27;20035;-45
2022/10/30 00:52:35;;;;;;;21.85;12.25;;;14.40;99.90;;;;;;5115496;27;20118;-47
2022/10/30 00:55:06;;;;;;;19.30;11.70;;;14.40;99.90;;;;;;5121318;27;20084;-45
2022/10/30 00:57:34;;;;;;;20.15;11.70;;;14.40;99.90;;;;;;5121766;27;20043;-44
2022/10/30 01:00:00;;;;;;;17.60;11.40;;;14.50;99.90;;;;;;5142719;27;20083;-45
2022/10/30 01:02:26;;;;;;;21.80;12.57;;;14.30;99.90;;;;;;5138753;27;20035;-44
2022/10/30 01:04:53;;;;;;;24.33;12.23;;;14.40;99.90;;;;;;5139551;27;20046;-46
2022/10/30 01:07:19;;;;;;;23.45;12.18;;;14.30;99.90;;;;;;5141190;27;20083;-45
2022/10/30 01:09:46;;;;;;;19.90;11.50;;;14.30;99.90;;;;;;5133781;27;20039;-45
2022/10/30 01:12:13;;;;;;;22.23;12.43;;;14.30;99.90;;;;;;5142439;27;20029;-45
2022/10/30 01:14:46;;;;;;;22.90;12.13;;;14.20;99.90;;;;;;5142525;27;20070;-45
2022/10/30 01:17:24;;;;;;;24.52;12.65;;;14.30;99.90;;;;;;5133378;27;20110;-45
2022/10/30 01:20:21;;;;;;;20.35;11.35;;;14.20;99.90;;;;;;5140656;27;20104;-46
2022/10/30 01:23:21;;;;;;;22.88;12.35;;;14.30;99.90;;;;;;5135004;27;20371;-44
2022/10/30 01:26:09;;;;;;;22.48;11.55;;;14.20;99.90;;;;;;5132662;27;20076;-45
2022/10/30 01:28:54;;;;;;;20.00;11.38;;;14.20;99.90;;;;;;5141454;27;20039;-44
2022/10/30 01:31:50;;;;;;;22.30;12.30;;;14.30;99.90;;;;;;5144972;27;20035;-45
2022/10/30 01:34:25;;;;;;;21.88;11.55;;;14.20;99.90;;;;;;5084990;27;20046;-47
2022/10/30 01:37:02;;;;;;;20.90;12.02;;;14.10;99.90;;;;;;5136186;27;20061;-45
2022/10/30 01:39:33;;;;;;;21.08;11.55;;;14.10;99.90;;;;;;5114790;27;20109;-46
2022/10/30 01:41:59;;;;;;;23.17;12.00;;;14.20;99.90;;;;;;5133040;27;20053;-45
2022/10/30 01:44:30;;;;;;;18.30;11.48;;;14.20;99.90;;;;;;5142531;27;20031;-46
2022/10/30 01:47:27;;;;;;;18.63;12.57;;;14.20;99.90;;;;;;5100138;27;20117;-46
2022/10/30 01:50:46;;;;;;;18.60;11.55;;;14.20;99.90;;;;;;5142754;27;20054;-45
2022/10/30 01:53:20;;;;;;;21.02;11.68;;;14.20;99.90;;;;;;5114828;27;20046;-46
2022/10/30 01:56:12;;;;;;;18.83;10.27;;;14.10;99.90;;;;;;5114356;27;20074;-46
2022/10/30 01:58:59;;;;;;;22.23;12.23;;;14.10;99.90;;;;;;5142704;27;20099;-45
2022/10/30 02:01:26;;;;;;;17.92;11.75;;;14.00;99.90;;;;;;5133409;27;20039;-43
2022/10/30 02:03:52;;;;;;;18.30;11.40;;;14.00;99.90;;;;;;5133859;27;20035;-46
2022/10/30 02:06:18;;;;;;;21.00;11.95;;;14.10;99.90;;;;;;5131275;27;20432;-45
2022/10/30 02:08:44;;;;;;;18.02;11.77;;;14.00;99.90;;;;;;5133774;27;20470;-45
2022/10/30 02:11:10;;;;;;;20.92;11.98;;;14.00;99.90;;;;;;5133912;27;20039;-45
2022/10/30 02:13:37;;;;;;;22.35;12.30;;;14.10;99.90;;;;;;5145520;27;20035;-44
2022/10/30 02:16:03;;;;;;;22.33;11.85;;;14.00;99.90;;;;;;5137370;27;20035;-45
2022/10/30 02:18:28;;;;;;;18.88;11.07;;;14.10;99.90;;;;;;5146902;27;20366;-44
2022/10/30 02:20:54;;;;;;;22.55;12.05;;;13.90;99.90;;;;;;5119245;27;20039;-44
2022/10/30 02:23:21;;;;;;;23.10;11.98;;;14.00;99.90;;;;;;5132391;27;20042;-46
2022/10/30 02:25:47;;;;;;;21.20;12.38;;;13.90;99.90;;;;;;5134353;27;20055;-46
2022/10/30 02:28:13;;;;;;;21.80;12.32;;;14.00;99.90;;;;;;5140533;27;20459;-46
2022/10/30 02:30:42;;;;;;;20.50;11.88;;;13.80;99.90;;;;;;5135299;27;20067;-45
2022/10/30 02:33:09;;;;;;;21.35;12.30;;;14.00;99.90;;;;;;5121561;27;20118;-44
2022/10/30 02:35:34;;;;;;;21.65;12.05;;;13.80;99.90;;;;;;5148983;27;20046;-46
2022/10/30 02:38:01;;;;;;;24.13;12.60;;;13.90;99.90;;;;;;5143281;27;20477;-46
2022/10/30 02:40:27;;;;;;;20.92;12.70;;;13.70;99.90;;;;;;5117364;27;20041;-46
2022/10/30 02:42:53;;;;;;;25.17;12.52;;;13.70;99.90;;;;;;5131432;27;20031;-45
2022/10/30 02:45:20;;;;;;;19.02;11.57;;;13.70;99.90;;;;;;5132960;27;20385;-46
2022/10/30 02:47:45;;;;;;;21.00;12.50;;;13.70;99.90;;;;;;5142704;27;20039;-45
2022/10/30 02:50:11;;;;;;;22.13;12.05;;;13.70;99.90;;;;;;5145421;27;20027;-45
2022/10/30 02:52:37;;;;;;;21.25;12.65;;;13.70;99.90;;;;;;5135907;27;20125;-44
2022/10/30 02:55:03;;;;;;;20.45;12.32;;;13.50;99.90;;;;;;5140333;27;20039;-47
2022/10/30 02:57:28;;;;;;;22.75;13.02;;;13.70;99.90;;;;;;5116598;27;20046;-45
2022/10/30 02:59:54;;;;;;;18.58;12.57;;;13.50;99.90;;;;;;5131382;27;20031;-46
2022/10/30 03:02:20;;;;;;;23.92;12.63;;;13.50;99.90;;;;;;5142518;27;20065;-45
2022/10/30 03:04:45;;;;;;;20.95;10.98;;;13.60;99.90;;;;;;5132367;27;20042;-47
2022/10/30 03:07:11;;;;;;;20.98;12.68;;;13.60;99.90;;;;;;5133300;27;20034;-45
2022/10/30 03:09:37;;;;;;;19.85;13.02;;;13.50;99.90;;;;;;5113688;27;20081;-45
2022/10/30 03:12:03;;;;;;;19.08;12.48;;;13.60;99.90;;;;;;5142744;27;20027;-45
2022/10/30 03:14:28;;;;;;;21.08;13.40;;;13.60;99.90;;;;;;5137804;27;20038;-46
2022/10/30 03:16:54;;;;;;;21.20;13.10;;;13.40;99.90;;;;;;5144549;27;20026;-46
2022/10/30 03:19:20;;;;;;;21.65;12.52;;;13.50;99.90;;;;;;5149411;27;20053;-45
2022/10/30 03:21:46;;;;;;;19.65;11.07;;;13.60;99.90;;;;;;5146167;27;20437;-44
2022/10/30 03:24:12;;;;;;;20.60;12.13;;;13.50;99.90;;;;;;5143052;27;20027;-47
2022/10/30 03:26:37;;;;;;;21.90;12.25;;;13.40;99.90;;;;;;5138715;27;20063;-44
2022/10/30 03:29:03;;;;;;;18.70;12.65;;;13.40;99.90;;;;;;5126111;27;20481;-44
2022/10/30 03:31:30;;;;;;;20.95;13.13;;;13.30;99.90;;;;;;5152530;27;20038;-46
2022/10/30 03:33:56;;;;;;;21.17;11.30;;;13.30;99.90;;;;;;5142797;27;20031;-43
2022/10/30 03:36:22;;;;;;;21.45;12.32;;;13.40;99.90;;;;;;5145017;27;20050;-44
2022/10/30 03:38:47;;;;;;;22.48;13.90;;;13.20;99.90;;;;;;5117510;27;20031;-46
2022/10/30 03:41:13;;;;;;;19.52;10.73;;;13.30;99.90;;;;;;5146669;27;20084;-45
2022/10/30 03:43:38;;;;;;;21.08;13.70;;;13.20;99.90;;;;;;5123269;27;20547;-46
2022/10/30 03:46:04;;;;;;;22.35;12.45;;;13.30;99.90;;;;;;5143723;27;20484;-45
2022/10/30 03:48:30;;;;;;;21.98;13.50;;;13.20;99.90;;;;;;5123304;27;20488;-45
2022/10/30 03:50:57;;;;;;;20.13;11.45;;;13.10;99.90;;;;;;5140224;27;20390;-46
2022/10/30 03:53:25;;;;;;;24.35;11.07;;;13.10;99.90;;;;;;5145833;27;20071;-46
2022/10/30 03:55:51;;;;;;;20.00;13.18;;;13.20;99.90;;;;;;5146306;27;20481;-45
2022/10/30 03:58:17;;;;;;;23.80;13.57;;;13.20;99.90;;;;;;5140589;27;20038;-45
2022/10/30 04:00:43;;;;;;;22.60;12.98;;;13.20;99.90;;;;;;5134906;27;20484;-46
2022/10/30 04:03:10;;;;;;;23.25;13.70;;;13.20;99.90;;;;;;5147985;27;20500;-46
2022/10/30 04:05:36;;;;;;;19.73;10.82;;;13.10;99.90;;;;;;5145611;27;20039;-45
2022/10/30 04:08:09;;;;;;;27.75;13.90;;;13.00;99.90;;;;;;5143238;27;20038;-47
2022/10/30 04:10:35;;;;;;;21.05;13.90;;;13.10;99.90;;;;;;5134803;27;20042;-45
2022/10/30 04:13:02;;;;;;;20.73;11.40;;;13.10;99.90;;;;;;5134648;27;20027;-45
2022/10/30 04:15:28;;;;;;;20.98;13.73;;;13.00;99.90;;;;;;5142908;27;20039;-46
2022/10/30 04:17:54;;;;;;;21.33;13.63;;;13.00;99.90;;;;;;5143083;27;20057;-46
2022/10/30 04:20:21;;;;;;;23.10;13.65;;;12.90;99.90;;;;;;5139813;27;20039;-47
2022/10/30 04:22:47;;;;;;;26.52;14.25;;;13.00;99.90;;;;;;5144223;27;20525;-47
2022/10/30 04:25:13;;;;;;;19.65;12.05;;;12.80;99.90;;;;;;5135864;27;20043;-48
2022/10/30 04:27:43;;;;;;;23.92;13.85;;;13.00;99.90;;;;;;5142790;27;20474;-46
2022/10/30 04:30:10;;;;;;;22.60;13.55;;;12.90;99.90;;;;;;5134343;27;20042;-47
2022/10/30 04:32:44;;;;;;;28.33;14.32;;;13.00;99.90;;;;;;5141261;27;20462;-45
2022/10/30 04:35:09;;;;;;;18.17;10.73;;;12.80;99.90;;;;;;5137451;27;20041;-46
2022/10/30 04:37:35;;;;;;;24.13;13.50;;;12.80;99.90;;;;;;5136519;27;20118;-46
2022/10/30 04:40:00;;;;;;;24.20;11.77;;;12.90;99.90;;;;;;5134703;27;20069;-46
2022/10/30 04:42:26;;;;;;;21.67;13.43;;;12.80;99.90;;;;;;5138781;27;20481;-45
2022/10/30 04:44:52;;;;;;;20.65;11.15;;;12.70;99.90;;;;;;5135757;27;20042;-46
2022/10/30 04:47:17;;;;;;;18.52;12.15;;;13.00;99.90;;;;;;5152359;27;20039;-46
2022/10/30 04:49:43;;;;;;;22.08;13.45;;;12.90;99.90;;;;;;5134732;27;20039;-45
2022/10/30 04:52:09;;;;;;;19.63;13.20;;;12.90;99.90;;;;;;5119724;27;20393;-45
2022/10/30 04:54:34;;;;;;;20.30;13.13;;;12.90;99.90;;;;;;5146910;27;20454;-45
2022/10/30 04:57:00;;;;;;;23.73;13.52;;;12.70;99.90;;;;;;5137187;27;20525;-46
2022/10/30 04:59:26;;;;;;;24.08;14.52;;;12.70;99.90;;;;;;5145563;27;20164;-45
2022/10/30 05:01:51;;;;;;;24.85;11.45;;;12.70;99.90;;;;;;5119553;27;20114;-46
2022/10/30 05:04:17;;;;;;;29.95;12.07;;;12.70;99.90;;;;;;5143162;27;20043;-47
2022/10/30 05:06:43;;;;;;;25.27;14.13;;;12.80;99.90;;;;;;5121531;27;20031;-46
2022/10/30 05:09:08;;;;;;;23.77;12.55;;;12.60;99.90;;;;;;5141984;27;20095;-45
2022/10/30 05:11:34;;;;;;;23.60;14.18;;;12.80;99.90;;;;;;5134693;27;20031;-44
2022/10/30 05:14:00;;;;;;;26.52;12.02;;;12.70;99.90;;;;;;5121657;27;20489;-46
2022/10/30 05:16:26;;;;;;;22.23;13.82;;;12.80;99.90;;;;;;5146473;27;20034;-46
2022/10/30 05:18:51;;;;;;;24.88;12.55;;;12.80;99.90;;;;;;5116812;27;20027;-48
2022/10/30 05:21:17;;;;;;;24.05;14.43;;;12.80;99.90;;;;;;5114647;27;20046;-46
2022/10/30 05:23:43;;;;;;;22.63;12.77;;;12.60;99.90;;;;;;5140379;27;20070;-45
2022/10/30 05:26:08;;;;;;;28.73;14.85;;;12.70;99.90;;;;;;5143529;27;20394;-45
2022/10/30 05:28:34;;;;;;;25.48;13.30;;;12.90;99.90;;;;;;5134600;27;20070;-45
2022/10/30 05:31:00;;;;;;;24.17;15.43;;;12.70;99.90;;;;;;5142931;27;20546;-45
2022/10/30 05:33:25;;;;;;;20.70;12.27;;;12.70;99.90;;;;;;5109890;27;20088;-46
2022/10/30 05:35:51;;;;;;;29.95;14.77;;;12.90;99.90;;;;;;5138577;27;20042;-45
2022/10/30 05:38:16;;;;;;;21.77;12.70;;;12.90;99.90;;;;;;5148305;27;20111;-47
2022/10/30 05:40:45;;;;;;;31.38;15.65;;;12.90;99.90;;;;;;5137017;27;20096;-44
2022/10/30 05:43:11;;;;;;;27.63;13.02;;;12.60;99.90;;;;;;5132493;27;20125;-44
2022/10/30 05:45:37;;;;;;;22.23;13.88;;;12.90;99.90;;;;;;5143121;27;20117;-44
2022/10/30 05:48:05;;;;;;;24.00;12.40;;;12.70;99.90;;;;;;5139182;27;20112;-46
2022/10/30 05:50:32;;;;;;;23.23;14.65;;;12.80;99.90;;;;;;5135638;27;20034;-46
2022/10/30 05:52:59;;;;;;;26.60;12.43;;;12.80;99.90;;;;;;5133831;27;20382;-44
2022/10/30 05:55:25;;;;;;;18.60;12.82;;;12.70;99.90;;;;;;5138277;27;20096;-45
2022/10/30 05:58:02;;;;;;;25.65;14.70;;;12.50;99.90;;;;;;5137113;27;20035;-45
2022/10/30 06:00:30;;;;;;;23.77;13.40;;;12.60;99.90;;;;;;5129041;27;20113;-45
2022/10/30 06:03:04;;;;;;;21.10;14.30;;;12.60;99.90;;;;;;5143664;27;20042;-45
2022/10/30 06:05:31;;;;;;;24.75;12.40;;;12.70;99.90;;;;;;5151065;27;20074;-46
2022/10/30 06:07:57;;;;;;;22.95;12.95;;;12.40;99.90;;;;;;5145301;27;20042;-44
2022/10/30 06:10:23;;;;;;;27.80;15.70;;;12.60;99.90;;;;;;5140688;27;20142;-44
2022/10/30 06:13:00;;;;;;;23.77;13.30;;;12.30;99.90;;;;;;5135097;27;20031;-44
2022/10/30 06:15:29;;;;;;;21.05;12.85;;;12.50;99.90;;;;;;5138058;27;20092;-44
2022/10/30 06:17:55;;;;;;;25.50;13.50;;;12.30;99.90;;;;;;5122274;27;20054;-44
2022/10/30 06:20:24;;;;;;;22.60;12.73;;;12.30;99.90;;;;;;5137129;27;20113;-46
2022/10/30 06:22:56;;;;;;;26.20;15.30;;;12.50;99.90;;;;;;5146824;27;20038;-46
2022/10/30 06:25:22;;;;;;;21.90;12.02;;;12.30;99.90;;;;;;5131717;27;20567;-46
2022/10/30 06:27:48;;;;;;;24.27;13.30;;;12.30;99.90;;;;;;5142137;27;20039;-46
2022/10/30 06:30:14;;;;;;;27.85;16.05;;;12.20;99.90;;;;;;5132992;27;20050;-45
2022/10/30 06:32:40;;;;;;;23.95;13.20;;;12.20;99.90;;;;;;5140162;27;20866;-44
2022/10/30 06:35:07;;;;;;;25.50;14.35;;;12.30;99.90;;;;;;5143026;27;20035;-44
2022/10/30 06:37:32;;;;;;;23.40;13.38;;;12.20;99.90;;;;;;5136852;27;20080;-44
2022/10/30 06:39:59;;;;;;;23.83;13.98;;;12.10;99.90;;;;;;5134483;27;21575;-45
2022/10/30 06:42:24;;;;;;;29.90;16.10;;;12.40;99.90;;;;;;5131478;27;20042;-44
2022/10/30 06:44:50;;;;;;;22.50;14.18;;;12.20;99.90;;;;;;5132618;27;20099;-46
2022/10/30 06:47:16;;;;;;;24.25;13.30;;;12.50;99.90;;;;;;5117624;27;20037;-44
2022/10/30 06:49:42;;;;;;;26.30;13.55;;;12.20;99.90;;;;;;5142887;27;20118;-44
2022/10/30 06:52:07;;;;;;;24.98;14.00;;;12.20;99.90;;;;;;5137594;27;20163;-44
2022/10/30 06:54:33;;;;;;;26.00;17.05;;;12.50;99.90;;;;;;5120068;27;20110;-43
2022/10/30 06:56:59;;;;;;;27.15;14.00;;;12.50;99.90;;;;;;5087977;27;20035;-44
2022/10/30 06:59:25;;;;;;;29.00;17.02;;;12.30;99.90;;;;;;5141544;27;20493;-44
2022/10/30 07:01:50;;;;;;;25.33;14.70;;;12.20;99.90;;;;;;5141108;27;20042;-47
2022/10/30 07:04:16;;;;;;;28.48;17.60;;;12.60;99.90;;;;;;5142140;27;20561;-45
2022/10/30 07:06:42;;;;;;;22.00;14.25;;;12.60;99.90;;;;;;5140640;27;20135;-44
2022/10/30 07:09:08;;;;;;;26.77;14.98;;;12.50;99.90;;;;;;5143260;27;20034;-47
2022/10/30 07:11:33;;;;;;;29.85;15.75;;;12.70;99.90;;;;;;5145921;27;20035;-45
2022/10/30 07:13:59;;;;;;;25.88;14.73;;;12.50;99.90;;;;;;5146241;27;20541;-47
2022/10/30 07:16:25;;;;;;;29.55;14.13;;;12.60;99.90;;;;;;5146268;27;20034;-44
2022/10/30 07:18:51;;;;;;;25.00;16.77;;;12.50;99.90;;;;;;5146600;27;20039;-45
2022/10/30 07:21:16;;;;;;;24.92;15.40;;;12.70;99.90;;;;;;5132705;27;20095;-46
2022/10/30 07:23:42;;;;;;;28.50;17.33;;;12.60;99.90;;;;;;5143439;27;20078;-44
2022/10/30 07:26:08;;;;;;;27.90;17.92;;;12.50;99.90;;;;;;5089826;28;20058;-46
2022/10/30 07:28:33;;;;;;;28.10;15.18;;;12.60;99.90;;;;;;5112351;27;20055;-45
2022/10/30 07:30:59;;;;;;;26.77;15.55;;;12.50;99.90;;;;;;5114028;27;20050;-44
2022/10/30 07:33:26;;;;;;;25.38;15.60;;;12.60;99.90;;;;;;5115546;27;20028;-45
2022/10/30 07:35:51;;;;;;;27.35;16.42;;;12.90;99.90;;;;;;5114628;27;20052;-45
2022/10/30 07:38:17;;;;;;;25.98;16.90;;;12.90;99.90;;;;;;5112862;28;20037;-45
2022/10/30 07:40:43;;;;;;;26.75;17.15;;;12.60;99.90;;;;;;5108316;28;20130;-46
2022/10/30 07:43:12;;;;;;;22.67;13.60;;;12.90;99.90;;;;;;5106961;28;20089;-45
2022/10/30 07:45:38;;;;;;;27.50;15.82;;;13.00;99.90;;;;;;5103384;27;20093;-45
2022/10/30 07:48:04;;;;;;;26.40;16.63;;;12.70;99.90;;;;;;5103742;28;20039;-46
2022/10/30 07:50:31;;;;;;;25.60;16.45;;;12.80;99.90;;;;;;5105713;28;20031;-45
2022/10/30 07:52:56;;;;;;;30.23;15.27;;;12.90;99.90;;;;;;5106072;28;20102;-46
2022/10/30 07:55:22;;;;;;;25.08;17.48;;;12.80;99.90;;;;;;5106053;27;20040;-45
2022/10/30 07:57:48;;;;;;;29.98;15.40;;;12.90;99.90;;;;;;5105306;27;20040;-47
2022/10/30 08:00:15;;;;;;;26.48;17.20;;;12.90;99.90;;;;;;5106546;28;20165;-45
2022/10/30 08:02:41;;;;;;;27.58;17.65;;;13.30;99.90;;;;;;5105576;27;20043;-45
2022/10/30 08:05:07;;;;;;;26.20;14.80;;;13.00;99.90;;;;;;5103815;27;20043;-44
2022/10/30 08:07:36;;;;;;;31.40;17.85;;;13.40;99.90;;;;;;5103973;27;20123;-44
2022/10/30 08:10:02;;;;;;;28.27;18.20;;;13.40;99.90;;;;;;5104805;28;20054;-45
2022/10/30 08:12:28;;;;;;;27.10;17.98;;;13.10;99.90;;;;;;5104504;28;20043;-46
2022/10/30 08:14:53;;;;;;;30.17;18.73;;;13.20;99.90;;;;;;5104960;28;20461;-45
2022/10/30 08:17:20;;;;;;;29.27;16.38;;;13.60;99.90;;;;;;5104332;28;20070;-46
2022/10/30 08:19:46;;;;;;;23.58;17.05;;;13.50;99.90;;;;;;5104599;28;20039;-45
2022/10/30 08:22:12;;;;;;;24.17;16.42;;;13.70;99.90;;;;;;5104269;28;20036;-46
2022/10/30 08:24:38;;;;;;;25.92;17.25;;;13.60;99.90;;;;;;5104414;27;20035;-47
2022/10/30 08:27:04;;;;;;;28.30;17.48;;;13.50;99.90;;;;;;5122743;27;20542;-46
2022/10/30 08:29:30;;;;;;;24.38;18.23;;;13.60;99.90;;;;;;5125102;27;20036;-46
2022/10/30 08:31:55;;;;;;;23.48;16.75;;;13.90;99.90;;;;;;5125593;27;20038;-44
2022/10/30 08:34:21;;;;;;;23.98;16.25;;;13.80;99.90;;;;;;5125653;27;20050;-45
2022/10/30 08:36:48;;;;;;;30.90;17.85;;;14.20;99.90;;;;;;5127252;27;20081;-45
2022/10/30 08:39:15;;;;;;;24.92;17.23;;;13.90;99.90;;;;;;5126201;27;20039;-44
2022/10/30 08:41:40;;;;;;;28.30;16.52;;;14.30;99.90;;;;;;5107567;27;20093;-47
2022/10/30 08:44:06;;;;;;;24.95;16.38;;;14.10;99.90;;;;;;5125359;27;20719;-46
2022/10/30 08:46:32;;;;;;;28.38;16.52;;;14.50;99.90;;;;;;5126351;27;20051;-45
2022/10/30 08:48:57;;;;;;;27.10;17.15;;;14.30;99.90;;;;;;5124738;27;20398;-47
2022/10/30 08:51:23;;;;;;;23.23;16.17;;;14.40;99.90;;;;;;5083139;27;20446;-46
2022/10/30 08:53:49;;;;;;;23.73;15.90;;;14.70;99.90;;;;;;5099031;27;20039;-45
2022/10/30 08:56:16;;;;;;;28.00;16.65;;;14.60;99.90;;;;;;5120865;27;20480;-46
2022/10/30 08:58:41;;;;;;;26.77;16.63;;;14.70;99.90;;;;;;5120692;27;20050;-46
2022/10/30 09:01:07;;;;;;;26.13;17.73;;;14.90;99.90;;;;;;5123421;27;20040;-45
2022/10/30 09:03:33;;;;;;;29.67;17.67;;;15.00;99.90;;;;;;5118777;27;20038;-48
2022/10/30 09:06:00;;;;;;;27.20;17.17;;;15.00;99.90;;;;;;5120453;27;20039;-47
2022/10/30 09:08:26;;;;;;;28.23;17.85;;;15.20;99.90;;;;;;5121194;27;20675;-45
2022/10/30 09:10:55;;;;;;;24.98;16.95;;;15.10;99.90;;;;;;5122274;27;20066;-47
2022/10/30 09:13:21;;;;;;;26.05;17.73;;;15.50;99.90;;;;;;5125087;27;20104;-46
2022/10/30 09:15:47;;;;;;;29.40;18.88;;;15.60;99.90;;;;;;5123869;27;20067;-45
2022/10/30 09:18:12;;;;;;;28.85;17.95;;;15.50;99.90;;;;;;5123543;27;20039;-45
2022/10/30 09:20:38;;;;;;;31.80;18.65;;;15.80;99.90;;;;;;5124179;27;20035;-45
2022/10/30 09:23:04;;;;;;;25.92;16.77;;;15.80;99.90;;;;;;5124973;27;20031;-46
2022/10/30 09:25:29;;;;;;;26.42;17.02;;;16.00;99.90;;;;;;5123933;27;20113;-45
2022/10/30 09:27:55;;;;;;;24.27;16.52;;;16.00;99.90;;;;;;5124484;27;20066;-47
2022/10/30 09:30:21;;;;;;;25.33;17.02;;;16.10;99.90;;;;;;5124965;27;20628;-45
2022/10/30 09:32:57;;;;;;;24.55;17.33;;;16.10;99.90;;;;;;5124577;27;20023;-46
2022/10/30 09:35:23;;;;;;;22.33;17.05;;;16.20;99.90;;;;;;5123296;27;20077;-46
2022/10/30 09:37:49;;;;;;;26.08;17.35;;;16.50;99.90;;;;;;5107782;27;20511;-48
2022/10/30 09:40:40;;;;;;;24.88;16.85;;;16.50;99.90;;;;;;5125364;27;20050;-48
2022/10/30 09:43:30;;;;;;;29.27;16.77;;;16.50;99.90;;;;;;5125348;27;20076;-46
2022/10/30 09:46:07;;;;;;;25.27;17.20;;;16.50;99.90;;;;;;5126031;27;20506;-46
2022/10/30 09:48:40;;;;;;;27.20;17.15;;;16.60;99.90;;;;;;5123083;27;20493;-45
2022/10/30 09:51:12;;;;;;;26.85;16.92;;;16.70;99.90;;;;;;5121514;27;20046;-45
2022/10/30 09:53:50;;;;;;;29.20;16.90;;;16.70;99.90;;;;;;5121030;27;20031;-45
2022/10/30 09:56:37;;;;;;;29.48;16.60;;;16.70;99.90;;;;;;5122945;27;20039;-45
2022/10/30 09:59:25;;;;;;;28.33;16.40;;;16.80;99.90;;;;;;5119768;27;20493;-45
2022/10/30 10:02:02;;;;;;;26.27;15.30;;;17.00;99.90;;;;;;5121314;27;20531;-46
2022/10/30 10:04:43;;;;;;;28.08;15.73;;;17.20;99.90;;;;;;5123214;27;20134;-46
2022/10/30 10:07:37;;;;;;;24.38;15.00;;;17.40;99.90;;;;;;5121687;27;20032;-46
2022/10/30 10:10:10;;;;;;;20.88;14.30;;;17.60;99.90;;;;;;5121498;27;20027;-46
2022/10/30 10:12:44;;;;;;;26.67;14.50;;;18.00;99.90;;;;;;5121762;27;20050;-45
2022/10/30 10:15:35;;;;;;;;;;;18.20;99.90;;;;;;5123058;27;20058;-46
2022/10/30 10:18:05;;;;;;;23.35;14.02;;;18.40;99.90;;;;;;5114379;27;19916;-46
2022/10/30 10:20:41;;;;;;;22.77;13.30;;;18.50;99.90;;;;;;5121045;27;20047;-45
2022/10/30 10:23:37;;;;;;;23.05;13.77;;;18.60;99.90;;;;;;5120519;27;20931;-48
2022/10/30 10:26:25;;;;;;;24.48;13.15;;;18.70;99.90;;;;;;5117482;27;20059;-46
2022/10/30 10:29:14;;;;;;;19.88;12.43;;;18.80;99.90;;;;;;5118474;27;20035;-45
2022/10/30 10:32:16;;;;;;;22.73;13.25;;;18.70;99.90;;;;;;5121017;27;20385;-47
2022/10/30 10:35:10;;;;;;;23.25;13.52;;;18.80;99.90;;;;;;5119360;27;20095;-48
2022/10/30 10:37:35;;;;;;;24.15;12.65;;;18.90;99.90;;;;;;5119131;27;20031;-46
2022/10/30 10:40:17;;;;;;;21.17;13.75;;;18.90;99.90;;;;;;5119651;27;20039;-45
2022/10/30 10:43:16;;;;;;;21.75;13.60;;;18.90;99.90;;;;;;5120715;27;20088;-46
2022/10/30 10:45:52;;;;;;;25.45;14.88;;;18.90;99.90;;;;;;5120463;27;20489;-45
2022/10/30 10:48:18;;;;;;;22.55;13.57;;;18.90;99.90;;;;;;5121515;27;20057;-46
2022/10/30 10:51:00;;;;;;;21.65;13.57;;;19.00;99.90;;;;;;5122819;27;20031;-47
2022/10/30 10:53:47;;;;;;;20.13;12.90;;;19.20;99.90;;;;;;5119180;27;20101;-47
2022/10/30 10:56:13;;;;;;;23.33;13.15;;;19.20;99.90;;;;;;5119632;27;20112;-46
2022/10/30 10:58:44;;;;;;;24.20;12.30;;;19.20;99.90;;;;;;5121354;27;20101;-47
2022/10/30 11:01:16;;;;;;;22.75;12.32;;;19.40;99.90;;;;;;5121102;27;20074;-45
2022/10/30 11:03:54;;;;;;;20.15;12.25;;;19.50;99.90;;;;;;5118798;27;20055;-45
2022/10/30 11:06:25;;;;;;;21.20;11.75;;;19.50;99.90;;;;;;5103883;27;20039;-46
2022/10/30 11:08:53;;;;;;;21.50;12.10;;;19.40;99.90;;;;;;5119840;27;20474;-47
2022/10/30 11:11:18;;;;;;;20.85;11.65;;;19.40;99.90;;;;;;5100837;27;20092;-45
2022/10/30 11:13:44;;;;;;;23.17;11.65;;;19.50;99.90;;;;;;5119769;27;20428;-46
2022/10/30 11:16:47;;;;;;;19.40;11.80;;;19.70;99.90;;;;;;5121465;27;20145;-45
2022/10/30 11:19:12;;;;;;;26.58;11.45;;;20.10;99.90;;;;;;5119049;27;20122;-47
2022/10/30 11:21:44;;;;;;;17.35;11.18;;;20.40;99.90;;;;;;5118544;27;20150;-47
2022/10/30 11:24:36;;;;;;;24.90;10.93;;;20.60;99.90;;;;;;5122390;27;20043;-48
2022/10/30 11:27:22;;;;;;;18.27;10.10;;;20.90;99.90;;;;;;5117741;27;20393;-48
2022/10/30 11:29:58;;;;;;;18.95;10.35;;;21.10;99.90;;;;;;5122994;27;20129;-46
2022/10/30 11:32:30;;;;;;;20.13;10.75;;;21.30;99.90;;;;;;5105021;27;20050;-47
2022/10/30 11:35:08;;;;;;;23.60;10.73;;;21.40;99.90;;;;;;5122084;27;20444;-47
2022/10/30 11:37:39;;;;;;;16.70;9.65;;;21.40;99.90;;;;;;5099519;27;20027;-47
2022/10/30 11:40:25;;;;;;;21.08;10.68;;;21.20;99.90;;;;;;5120943;27;20031;-47
2022/10/30 11:43:01;;;;;;;24.80;11.45;;;21.40;99.90;;;;;;5124980;27;20131;-48
2022/10/30 11:45:33;;;;;;;23.23;10.25;;;21.40;99.90;;;;;;5125085;27;20366;-47
2022/10/30 11:47:59;;;;;;;19.45;10.55;;;21.40;99.90;;;;;;5123823;27;20039;-47
2022/10/30 11:50:29;;;;;;;18.42;10.60;;;21.40;99.90;;;;;;5122935;27;20031;-50
2022/10/30 11:52:59;;;;;;;20.38;9.85;;;21.40;99.90;;;;;;5124911;27;20027;-46
2022/10/30 11:55:39;;;;;;;15.98;9.32;;;21.40;99.90;;;;;;5089268;27;21484;-48
2022/10/30 11:58:10;;;;;;;21.73;10.20;;;21.50;99.90;;;;;;5120511;27;20698;-47
2022/10/30 12:00:39;;;;;;;15.60;8.95;;;21.50;99.90;;;;;;5107208;27;20027;-47
2022/10/30 12:03:27;;;;;;;16.70;8.63;;;21.40;99.90;;;;;;5122442;27;20063;-50
2022/10/30 12:06:07;;;;;;;16.33;9.05;;;21.10;99.90;;;;;;5105097;27;20050;-48
2022/10/30 12:08:33;;;;;;;19.40;10.27;;;21.00;99.90;;;;;;5102941;27;20049;-47
2022/10/30 12:11:02;;;;;;;18.58;8.63;;;20.80;99.90;;;;;;5124163;27;20432;-49
2022/10/30 12:13:35;;;;;;;19.13;8.15;;;20.60;99.90;;;;;;5125963;27;20369;-46
2022/10/30 12:16:14;;;;;;;17.52;8.48;;;20.60;99.90;;;;;;5122713;27;20110;-48
2022/10/30 12:18:41;;;;;;;16.58;8.60;;;20.50;99.90;;;;;;5123131;27;20517;-46
2022/10/30 12:21:07;;;;;;;15.60;8.45;;;20.50;99.90;;;;;;5121043;27;20043;-48
2022/10/30 12:23:34;;;;;;;17.65;8.38;;;20.60;99.90;;;;;;5121585;27;20039;-46
2022/10/30 12:26:11;;;;;;;18.25;8.50;;;20.60;99.90;;;;;;5121181;27;20535;-46
2022/10/30 12:28:39;;;;;;;12.98;8.38;;;20.60;99.90;;;;;;5122533;27;20035;-48
2022/10/30 12:31:19;;;;;;;18.55;8.00;;;20.60;99.90;;;;;;5104174;27;20050;-47
2022/10/30 12:33:51;;;;;;;19.73;8.27;;;20.70;99.90;;;;;;5122146;27;20054;-48
2022/10/30 12:36:22;;;;;;;15.48;7.45;;;20.80;99.90;;;;;;5123632;27;20039;-47
2022/10/30 12:39:03;;;;;;;14.43;7.05;;;20.80;99.90;;;;;;5123385;27;20546;-50
2022/10/30 12:41:41;;;;;;;21.27;8.43;;;21.00;99.90;;;;;;5104379;27;20851;-46